sensor_id;sensor_type;location;lat;lon;timestamp;pressure;altitude;pressure_sealevel;temperature;humidity
67430;BME280;54298;52.076;5.264;2022-10-31T00:00:25;102013.0;;;12.08;86.79
67430;BME280;54298;52.076;5.264;2022-10-31T00:03:37;102011.0;;;12.11;86.69
67430;BME280;54298;52.076;5.264;2022-10-31T00:05:14;102006.0;;;12.18;86.46
67430;BME280;54298;52.076;5.264;2022-10-31T00:06:51;102002.0;;;12.18;86.41
67430;BME280;54298;52.076;5.264;2022-10-31T00:08:27;102001.0;;;12.17;86.68
67430;BME280;54298;52.076;5.264;2022-10-31T00:11:42;102003.0;;;12.09;86.9
67430;BME280;54298;52.076;5.264;2022-10-31T00:13:18;102011.0;;;12.13;87.13
67430;BME280;54298;52.076;5.264;2022-10-31T00:14:55;102010.0;;;12.17;86.81
67430;BME280;54298;52.076;5.264;2022-10-31T00:18:09;102005.0;;;12.2;86.6
67430;BME280;54298;52.076;5.264;2022-10-31T00:19:46;102003.0;;;12.33;86.04
67430;BME280;54298;52.076;5.264;2022-10-31T00:21:24;102010.0;;;12.23;86.05
67430;BME280;54298;52.076;5.264;2022-10-31T00:24:40;102006.0;;;12.27;85.9
67430;BME280;54298;52.076;5.264;2022-10-31T00:26:16;102010.0;;;12.31;85.74
67430;BME280;54298;52.076;5.264;2022-10-31T00:27:54;102010.0;;;12.21;86.15
67430;BME280;54298;52.076;5.264;2022-10-31T00:29:31;102017.0;;;12.16;86.51
67430;BME280;54298;52.076;5.264;2022-10-31T00:32:47;102021.0;;;12.21;86.48
67430;BME280;54298;52.076;5.264;2022-10-31T00:34:23;102017.0;;;12.16;86.52
67430;BME280;54298;52.076;5.264;2022-10-31T00:36:00;102016.0;;;12.22;86.3
67430;BME280;54298;52.076;5.264;2022-10-31T00:39:13;102017.0;;;12.22;85.97
67430;BME280;54298;52.076;5.264;2022-10-31T00:40:49;102018.0;;;12.13;86.3
67430;BME280;54298;52.076;5.264;2022-10-31T00:42:26;102018.0;;;12.15;86.35
67430;BME280;54298;52.076;5.264;2022-10-31T00:44:04;102018.0;;;12.14;86.08
67430;BME280;54298;52.076;5.264;2022-10-31T00:47:17;102020.0;;;12.19;86.02
67430;BME280;54298;52.076;5.264;2022-10-31T00:48:53;102021.0;;;12.27;85.31
67430;BME280;54298;52.076;5.264;2022-10-31T00:50:29;102030.0;;;12.13;85.98
67430;BME280;54298;52.076;5.264;2022-10-31T00:53:41;102031.0;;;12.01;86.62
67430;BME280;54298;52.076;5.264;2022-10-31T00:55:17;102033.0;;;11.99;86.81
67430;BME280;54298;52.076;5.264;2022-10-31T00:56:54;102027.0;;;12.07;86.47
67430;BME280;54298;52.076;5.264;2022-10-31T01:00:07;102027.0;;;12.06;86.55
67430;BME280;54298;52.076;5.264;2022-10-31T01:01:44;102023.0;;;12.0;86.69
67430;BME280;54298;52.076;5.264;2022-10-31T01:03:21;102022.0;;;11.98;86.64
67430;BME280;54298;52.076;5.264;2022-10-31T01:04:57;102021.0;;;11.98;86.17
67430;BME280;54298;52.076;5.264;2022-10-31T01:08:10;102025.0;;;11.93;86.15
67430;BME280;54298;52.076;5.264;2022-10-31T01:09:46;102027.0;;;11.93;86.15
67430;BME280;54298;52.076;5.264;2022-10-31T01:11:23;102020.0;;;11.94;86.0
67430;BME280;54298;52.076;5.264;2022-10-31T01:14:35;102018.0;;;12.03;85.29
67430;BME280;54298;52.076;5.264;2022-10-31T01:16:14;102014.0;;;11.94;85.16
67430;BME280;54298;52.076;5.264;2022-10-31T01:17:51;102005.0;;;11.94;85.12
67430;BME280;54298;52.076;5.264;2022-10-31T01:21:06;102007.0;;;11.9;84.93
67430;BME280;54298;52.076;5.264;2022-10-31T01:22:43;102002.0;;;11.86;85.12
67430;BME280;54298;52.076;5.264;2022-10-31T01:24:19;102003.0;;;11.88;85.0
67430;BME280;54298;52.076;5.264;2022-10-31T01:26:01;101995.0;;;11.9;84.65
67430;BME280;54298;52.076;5.264;2022-10-31T01:29:19;101995.0;;;11.88;84.47
67430;BME280;54298;52.076;5.264;2022-10-31T01:30:55;101991.0;;;11.81;84.2
67430;BME280;54298;52.076;5.264;2022-10-31T01:32:35;101998.0;;;11.62;84.57
67430;BME280;54298;52.076;5.264;2022-10-31T01:34:13;101992.0;;;11.56;84.71
67430;BME280;54298;52.076;5.264;2022-10-31T01:37:28;101991.0;;;11.45;84.76
67430;BME280;54298;52.076;5.264;2022-10-31T01:39:09;101991.0;;;11.3;85.32
67430;BME280;54298;52.076;5.264;2022-10-31T01:40:46;101995.0;;;11.25;85.52
67430;BME280;54298;52.076;5.264;2022-10-31T01:44:01;101985.0;;;11.29;85.49
67430;BME280;54298;52.076;5.264;2022-10-31T01:45:39;101982.0;;;11.29;85.4
67430;BME280;54298;52.076;5.264;2022-10-31T01:47:17;101985.0;;;11.27;85.34
67430;BME280;54298;52.076;5.264;2022-10-31T01:48:57;101984.0;;;11.21;85.26
67430;BME280;54298;52.076;5.264;2022-10-31T01:52:20;101981.0;;;11.22;85.06
67430;BME280;54298;52.076;5.264;2022-10-31T01:54:02;101982.0;;;11.24;84.63
67430;BME280;54298;52.076;5.264;2022-10-31T01:55:44;101983.0;;;11.14;84.96
67430;BME280;54298;52.076;5.264;2022-10-31T01:57:21;101991.0;;;11.07;85.13
67430;BME280;54298;52.076;5.264;2022-10-31T02:00:37;101986.0;;;11.07;84.97
67430;BME280;54298;52.076;5.264;2022-10-31T02:02:15;101982.0;;;11.04;84.8
67430;BME280;54298;52.076;5.264;2022-10-31T02:03:54;101982.0;;;10.88;85.15
67430;BME280;54298;52.076;5.264;2022-10-31T02:07:12;101982.0;;;10.88;85.11
67430;BME280;54298;52.076;5.264;2022-10-31T02:08:50;101980.0;;;10.81;85.59
67430;BME280;54298;52.076;5.264;2022-10-31T02:10:27;101983.0;;;10.77;85.62
67430;BME280;54298;52.076;5.264;2022-10-31T02:12:08;101984.0;;;10.74;85.56
67430;BME280;54298;52.076;5.264;2022-10-31T02:15:24;101982.0;;;10.68;85.7
67430;BME280;54298;52.076;5.264;2022-10-31T02:17:00;101984.0;;;10.82;85.23
67430;BME280;54298;52.076;5.264;2022-10-31T02:18:36;101980.0;;;10.83;84.66
67430;BME280;54298;52.076;5.264;2022-10-31T02:20:16;101981.0;;;10.78;84.44
67430;BME280;54298;52.076;5.264;2022-10-31T02:26:54;101988.0;;;10.54;85.22
67430;BME280;54298;52.076;5.264;2022-10-31T02:29:32;101985.0;;;10.53;85.41
67430;BME280;54298;52.076;5.264;2022-10-31T02:32:15;101982.0;;;10.58;85.2
67430;BME280;54298;52.076;5.264;2022-10-31T02:33:58;101980.0;;;10.62;84.79
67430;BME280;54298;52.076;5.264;2022-10-31T02:35:41;101985.0;;;10.49;84.88
67430;BME280;54298;52.076;5.264;2022-10-31T02:37:35;101983.0;;;10.4;85.06
67430;BME280;54298;52.076;5.264;2022-10-31T02:39:24;101981.0;;;10.36;85.33
67430;BME280;54298;52.076;5.264;2022-10-31T02:42:51;101986.0;;;10.35;85.22
67430;BME280;54298;52.076;5.264;2022-10-31T02:44:37;101987.0;;;10.35;84.89
67430;BME280;54298;52.076;5.264;2022-10-31T02:46:24;101991.0;;;10.34;84.68
67430;BME280;54298;52.076;5.264;2022-10-31T02:48:09;101989.0;;;10.33;84.66
67430;BME280;54298;52.076;5.264;2022-10-31T02:49:51;101994.0;;;10.35;84.36
67430;BME280;54298;52.076;5.264;2022-10-31T02:53:08;101989.0;;;10.34;84.04
67430;BME280;54298;52.076;5.264;2022-10-31T02:54:45;101989.0;;;10.3;84.01
67430;BME280;54298;52.076;5.264;2022-10-31T02:56:23;101992.0;;;10.23;84.15
67430;BME280;54298;52.076;5.264;2022-10-31T02:58:02;101986.0;;;10.06;84.96
67430;BME280;54298;52.076;5.264;2022-10-31T03:03:57;101995.0;;;10.0;84.94
67430;BME280;54298;52.076;5.264;2022-10-31T03:05:49;101996.0;;;9.98;84.96
67430;BME280;54298;52.076;5.264;2022-10-31T03:07:34;101990.0;;;9.98;85.07
67430;BME280;54298;52.076;5.264;2022-10-31T03:09:22;101988.0;;;9.97;84.84
67430;BME280;54298;52.076;5.264;2022-10-31T03:11:03;101987.0;;;9.94;85.12
67430;BME280;54298;52.076;5.264;2022-10-31T03:12:49;101986.0;;;9.96;84.95
67430;BME280;54298;52.076;5.264;2022-10-31T03:16:17;101991.0;;;9.78;85.41
67430;BME280;54298;52.076;5.264;2022-10-31T03:18:00;101994.0;;;9.82;85.28
67430;BME280;54298;52.076;5.264;2022-10-31T03:19:41;101996.0;;;9.89;85.23
67430;BME280;54298;52.076;5.264;2022-10-31T03:21:25;101996.0;;;9.9;85.0
67430;BME280;54298;52.076;5.264;2022-10-31T03:23:06;101994.0;;;9.78;85.24
67430;BME280;54298;52.076;5.264;2022-10-31T03:26:23;101998.0;;;9.85;85.18
67430;BME280;54298;52.076;5.264;2022-10-31T03:28:03;101991.0;;;9.81;84.9
67430;BME280;54298;52.076;5.264;2022-10-31T03:29:43;101995.0;;;9.83;84.73
67430;BME280;54298;52.076;5.264;2022-10-31T03:31:25;101989.0;;;9.77;84.76
67430;BME280;54298;52.076;5.264;2022-10-31T03:34:52;101993.0;;;9.76;84.98
67430;BME280;54298;52.076;5.264;2022-10-31T03:36:33;101989.0;;;9.71;85.25
67430;BME280;54298;52.076;5.264;2022-10-31T03:38:13;101990.0;;;9.69;85.38
67430;BME280;54298;52.076;5.264;2022-10-31T03:39:50;101988.0;;;9.59;85.81
67430;BME280;54298;52.076;5.264;2022-10-31T03:43:17;101995.0;;;9.66;85.67
67430;BME280;54298;52.076;5.264;2022-10-31T03:44:59;101990.0;;;9.59;86.0
67430;BME280;54298;52.076;5.264;2022-10-31T03:46:41;101993.0;;;9.64;85.79
67430;BME280;54298;52.076;5.264;2022-10-31T03:48:20;101994.0;;;9.64;85.72
67430;BME280;54298;52.076;5.264;2022-10-31T03:51:38;101995.0;;;9.72;85.46
67430;BME280;54298;52.076;5.264;2022-10-31T03:53:22;101995.0;;;9.66;85.13
67430;BME280;54298;52.076;5.264;2022-10-31T03:55:05;101992.0;;;9.56;85.08
67430;BME280;54298;52.076;5.264;2022-10-31T03:56:51;101993.0;;;9.63;85.09
67430;BME280;54298;52.076;5.264;2022-10-31T04:00:13;101996.0;;;9.51;85.23
67430;BME280;54298;52.076;5.264;2022-10-31T04:02:00;101993.0;;;9.55;85.12
67430;BME280;54298;52.076;5.264;2022-10-31T04:03:38;101992.0;;;9.59;85.1
67430;BME280;54298;52.076;5.264;2022-10-31T04:05:15;101996.0;;;9.57;85.11
67430;BME280;54298;52.076;5.264;2022-10-31T04:06:54;101996.0;;;9.52;85.02
67430;BME280;54298;52.076;5.264;2022-10-31T04:10:18;101995.0;;;9.47;85.15
67430;BME280;54298;52.076;5.264;2022-10-31T04:11:56;101999.0;;;9.51;85.07
67430;BME280;54298;52.076;5.264;2022-10-31T04:13:37;101994.0;;;9.48;85.16
67430;BME280;54298;52.076;5.264;2022-10-31T04:15:15;101998.0;;;9.5;85.4
67430;BME280;54298;52.076;5.264;2022-10-31T04:18:28;101997.0;;;9.5;85.32
67430;BME280;54298;52.076;5.264;2022-10-31T04:20:06;101998.0;;;9.48;85.54
67430;BME280;54298;52.076;5.264;2022-10-31T04:21:43;101996.0;;;9.48;85.38
67430;BME280;54298;52.076;5.264;2022-10-31T04:25:00;101999.0;;;9.56;85.07
67430;BME280;54298;52.076;5.264;2022-10-31T04:26:36;101995.0;;;9.47;84.75
67430;BME280;54298;52.076;5.264;2022-10-31T04:28:13;101994.0;;;9.4;84.88
67430;BME280;54298;52.076;5.264;2022-10-31T04:31:26;101987.0;;;9.41;84.93
67430;BME280;54298;52.076;5.264;2022-10-31T04:33:02;101991.0;;;9.48;84.77
67430;BME280;54298;52.076;5.264;2022-10-31T04:34:38;101988.0;;;9.55;84.69
67430;BME280;54298;52.076;5.264;2022-10-31T04:36:14;101984.0;;;9.51;85.07
67430;BME280;54298;52.076;5.264;2022-10-31T04:39:26;101988.0;;;9.56;85.05
67430;BME280;54298;52.076;5.264;2022-10-31T04:41:02;101989.0;;;9.48;85.38
67430;BME280;54298;52.076;5.264;2022-10-31T04:42:38;101984.0;;;9.41;85.32
67430;BME280;54298;52.076;5.264;2022-10-31T04:45:51;101983.0;;;9.41;85.08
67430;BME280;54298;52.076;5.264;2022-10-31T04:47:27;101983.0;;;9.51;84.62
67430;BME280;54298;52.076;5.264;2022-10-31T04:49:03;101980.0;;;9.34;84.72
67430;BME280;54298;52.076;5.264;2022-10-31T04:52:16;101980.0;;;9.28;84.92
67430;BME280;54298;52.076;5.264;2022-10-31T04:53:53;101983.0;;;9.31;84.93
67430;BME280;54298;52.076;5.264;2022-10-31T04:55:29;101982.0;;;9.34;84.68
67430;BME280;54298;52.076;5.264;2022-10-31T04:57:06;101981.0;;;9.4;84.25
67430;BME280;54298;52.076;5.264;2022-10-31T05:00:21;101981.0;;;9.33;84.66
67430;BME280;54298;52.076;5.264;2022-10-31T05:01:57;101980.0;;;9.23;84.63
67430;BME280;54298;52.076;5.264;2022-10-31T05:03:34;101982.0;;;9.23;84.77
67430;BME280;54298;52.076;5.264;2022-10-31T05:06:46;101980.0;;;9.3;84.33
67430;BME280;54298;52.076;5.264;2022-10-31T05:08:22;101977.0;;;9.22;84.56
67430;BME280;54298;52.076;5.264;2022-10-31T05:09:58;101977.0;;;9.14;84.75
67430;BME280;54298;52.076;5.264;2022-10-31T05:13:11;101980.0;;;9.01;85.22
67430;BME280;54298;52.076;5.264;2022-10-31T05:14:47;101980.0;;;9.02;85.24
67430;BME280;54298;52.076;5.264;2022-10-31T05:16:23;101982.0;;;9.05;85.19
67430;BME280;54298;52.076;5.264;2022-10-31T05:17:59;101982.0;;;9.02;85.46
67430;BME280;54298;52.076;5.264;2022-10-31T05:21:12;101976.0;;;9.02;85.39
67430;BME280;54298;52.076;5.264;2022-10-31T05:22:50;101974.0;;;9.01;85.43
67430;BME280;54298;52.076;5.264;2022-10-31T05:24:27;101972.0;;;9.03;85.41
67430;BME280;54298;52.076;5.264;2022-10-31T05:27:40;101969.0;;;9.07;85.16
67430;BME280;54298;52.076;5.264;2022-10-31T05:29:17;101964.0;;;9.06;85.17
67430;BME280;54298;52.076;5.264;2022-10-31T05:30:54;101967.0;;;9.05;85.21
67430;BME280;54298;52.076;5.264;2022-10-31T05:34:12;101967.0;;;8.98;85.41
67430;BME280;54298;52.076;5.264;2022-10-31T05:35:49;101969.0;;;8.94;85.64
67430;BME280;54298;52.076;5.264;2022-10-31T05:37:25;101966.0;;;8.99;85.51
67430;BME280;54298;52.076;5.264;2022-10-31T05:39:01;101964.0;;;8.92;85.59
67430;BME280;54298;52.076;5.264;2022-10-31T05:42:16;101962.0;;;8.9;85.75
67430;BME280;54298;52.076;5.264;2022-10-31T05:43:51;101968.0;;;8.92;85.52
67430;BME280;54298;52.076;5.264;2022-10-31T05:45:28;101972.0;;;8.93;85.5
67430;BME280;54298;52.076;5.264;2022-10-31T05:48:41;101967.0;;;9.0;85.35
67430;BME280;54298;52.076;5.264;2022-10-31T05:50:18;101967.0;;;9.13;85.13
67430;BME280;54298;52.076;5.264;2022-10-31T05:51:54;101963.0;;;8.99;85.61
67430;BME280;54298;52.076;5.264;2022-10-31T05:55:07;101963.0;;;8.99;85.83
67430;BME280;54298;52.076;5.264;2022-10-31T05:56:44;101960.0;;;8.96;86.06
67430;BME280;54298;52.076;5.264;2022-10-31T05:58:20;101957.0;;;8.89;86.59
67430;BME280;54298;52.076;5.264;2022-10-31T05:59:57;101955.0;;;8.97;86.34
67430;BME280;54298;52.076;5.264;2022-10-31T06:03:10;101953.0;;;8.98;86.67
67430;BME280;54298;52.076;5.264;2022-10-31T06:04:46;101953.0;;;8.99;87.07
67430;BME280;54298;52.076;5.264;2022-10-31T06:06:22;101953.0;;;9.03;87.25
67430;BME280;54298;52.076;5.264;2022-10-31T06:09:34;101951.0;;;9.14;87.17
67430;BME280;54298;52.076;5.264;2022-10-31T06:11:10;101944.0;;;9.14;87.31
67430;BME280;54298;52.076;5.264;2022-10-31T06:12:47;101939.0;;;9.27;86.93
67430;BME280;54298;52.076;5.264;2022-10-31T06:16:00;101945.0;;;9.19;87.19
67430;BME280;54298;52.076;5.264;2022-10-31T06:17:36;101947.0;;;9.18;86.85
67430;BME280;54298;52.076;5.264;2022-10-31T06:19:12;101948.0;;;9.19;86.61
67430;BME280;54298;52.076;5.264;2022-10-31T06:20:48;101948.0;;;9.14;86.51
67430;BME280;54298;52.076;5.264;2022-10-31T06:24:02;101949.0;;;9.06;87.01
67430;BME280;54298;52.076;5.264;2022-10-31T06:25:39;101955.0;;;9.13;87.16
67430;BME280;54298;52.076;5.264;2022-10-31T06:27:15;101951.0;;;9.21;86.75
67430;BME280;54298;52.076;5.264;2022-10-31T06:30:28;101949.0;;;9.23;86.81
67430;BME280;54298;52.076;5.264;2022-10-31T06:32:04;101949.0;;;9.21;86.9
67430;BME280;54298;52.076;5.264;2022-10-31T06:33:40;101955.0;;;9.18;87.14
67430;BME280;54298;52.076;5.264;2022-10-31T06:36:53;101958.0;;;9.14;87.39
67430;BME280;54298;52.076;5.264;2022-10-31T06:38:29;101961.0;;;9.23;87.26
67430;BME280;54298;52.076;5.264;2022-10-31T06:40:06;101961.0;;;9.31;87.19
67430;BME280;54298;52.076;5.264;2022-10-31T06:41:42;101963.0;;;9.34;87.24
67430;BME280;54298;52.076;5.264;2022-10-31T06:44:56;101962.0;;;9.36;87.45
67430;BME280;54298;52.076;5.264;2022-10-31T06:46:32;101965.0;;;9.49;86.95
67430;BME280;54298;52.076;5.264;2022-10-31T06:48:08;101964.0;;;9.61;86.8
67430;BME280;54298;52.076;5.264;2022-10-31T06:51:20;101964.0;;;9.71;86.56
67430;BME280;54298;52.076;5.264;2022-10-31T06:52:57;101964.0;;;9.64;86.94
67430;BME280;54298;52.076;5.264;2022-10-31T06:54:35;101965.0;;;9.64;86.93
67430;BME280;54298;52.076;5.264;2022-10-31T06:57:49;101967.0;;;9.68;86.78
67430;BME280;54298;52.076;5.264;2022-10-31T06:59:26;101971.0;;;9.84;86.45
67430;BME280;54298;52.076;5.264;2022-10-31T07:01:02;101969.0;;;9.71;86.74
67430;BME280;54298;52.076;5.264;2022-10-31T07:02:38;101970.0;;;9.69;86.58
67430;BME280;54298;52.076;5.264;2022-10-31T07:05:51;101973.0;;;9.75;86.63
67430;BME280;54298;52.076;5.264;2022-10-31T07:07:27;101972.0;;;9.73;87.28
67430;BME280;54298;52.076;5.264;2022-10-31T07:09:04;101970.0;;;9.96;87.24
67430;BME280;54298;52.076;5.264;2022-10-31T07:12:18;101974.0;;;10.07;87.3
67430;BME280;54298;52.076;5.264;2022-10-31T07:13:54;101963.0;;;10.22;87.29
67430;BME280;54298;52.076;5.264;2022-10-31T07:15:33;101957.0;;;10.33;87.49
67430;BME280;54298;52.076;5.264;2022-10-31T07:18:50;101961.0;;;10.41;87.35
67430;BME280;54298;52.076;5.264;2022-10-31T07:20:27;101956.0;;;10.53;87.49
67430;BME280;54298;52.076;5.264;2022-10-31T07:22:03;101964.0;;;10.54;87.83
67430;BME280;54298;52.076;5.264;2022-10-31T07:23:39;101959.0;;;10.5;87.52
67430;BME280;54298;52.076;5.264;2022-10-31T07:26:52;101963.0;;;10.58;87.78
67430;BME280;54298;52.076;5.264;2022-10-31T07:28:28;101968.0;;;10.58;87.52
67430;BME280;54298;52.076;5.264;2022-10-31T07:30:06;101968.0;;;10.68;87.48
67430;BME280;54298;52.076;5.264;2022-10-31T07:33:26;101968.0;;;10.74;87.35
67430;BME280;54298;52.076;5.264;2022-10-31T07:35:02;101971.0;;;10.79;87.66
67430;BME280;54298;52.076;5.264;2022-10-31T07:36:38;101972.0;;;10.83;87.77
67430;BME280;54298;52.076;5.264;2022-10-31T07:38:15;101971.0;;;10.95;87.79
67430;BME280;54298;52.076;5.264;2022-10-31T07:41:28;101968.0;;;11.02;87.39
67430;BME280;54298;52.076;5.264;2022-10-31T07:43:04;101968.0;;;11.01;87.49
67430;BME280;54298;52.076;5.264;2022-10-31T07:44:41;101971.0;;;11.06;87.88
67430;BME280;54298;52.076;5.264;2022-10-31T07:47:53;101975.0;;;11.1;88.0
67430;BME280;54298;52.076;5.264;2022-10-31T07:49:30;101977.0;;;11.13;88.01
67430;BME280;54298;52.076;5.264;2022-10-31T07:51:07;101976.0;;;11.22;88.12
67430;BME280;54298;52.076;5.264;2022-10-31T07:54:20;101974.0;;;11.22;88.87
67430;BME280;54298;52.076;5.264;2022-10-31T07:55:56;101976.0;;;11.29;88.57
67430;BME280;54298;52.076;5.264;2022-10-31T07:57:32;101981.0;;;11.28;88.39
67430;BME280;54298;52.076;5.264;2022-10-31T07:59:08;101984.0;;;11.33;88.33
67430;BME280;54298;52.076;5.264;2022-10-31T08:02:23;101984.0;;;11.42;88.4
67430;BME280;54298;52.076;5.264;2022-10-31T08:04:00;101985.0;;;11.5;88.45
67430;BME280;54298;52.076;5.264;2022-10-31T08:05:36;101984.0;;;11.51;88.26
67430;BME280;54298;52.076;5.264;2022-10-31T08:08:49;101992.0;;;11.52;89.06
67430;BME280;54298;52.076;5.264;2022-10-31T08:10:26;101993.0;;;11.62;89.36
67430;BME280;54298;52.076;5.264;2022-10-31T08:12:03;101987.0;;;11.78;88.94
67430;BME280;54298;52.076;5.264;2022-10-31T08:15:16;101986.0;;;11.92;88.82
67430;BME280;54298;52.076;5.264;2022-10-31T08:16:52;101988.0;;;11.88;89.33
67430;BME280;54298;52.076;5.264;2022-10-31T08:18:29;101992.0;;;11.97;89.66
67430;BME280;54298;52.076;5.264;2022-10-31T08:20:07;101990.0;;;12.07;89.66
67430;BME280;54298;52.076;5.264;2022-10-31T08:23:20;101988.0;;;12.21;89.65
67430;BME280;54298;52.076;5.264;2022-10-31T08:24:56;101983.0;;;12.31;89.68
67430;BME280;54298;52.076;5.264;2022-10-31T08:26:32;101975.0;;;12.4;89.97
67430;BME280;54298;52.076;5.264;2022-10-31T08:29:47;101976.0;;;12.5;89.76
67430;BME280;54298;52.076;5.264;2022-10-31T08:31:26;101980.0;;;12.64;89.67
67430;BME280;54298;52.076;5.264;2022-10-31T08:33:04;101977.0;;;12.76;89.62
67430;BME280;54298;52.076;5.264;2022-10-31T08:34:41;101976.0;;;12.8;89.58
67430;BME280;54298;52.076;5.264;2022-10-31T08:37:54;101976.0;;;12.94;89.38
67430;BME280;54298;52.076;5.264;2022-10-31T08:39:31;101980.0;;;13.01;89.13
67430;BME280;54298;52.076;5.264;2022-10-31T08:41:08;101985.0;;;13.02;89.32
67430;BME280;54298;52.076;5.264;2022-10-31T08:44:21;101983.0;;;13.04;89.41
67430;BME280;54298;52.076;5.264;2022-10-31T08:45:57;101983.0;;;13.15;89.13
67430;BME280;54298;52.076;5.264;2022-10-31T08:47:33;101980.0;;;13.25;88.87
67430;BME280;54298;52.076;5.264;2022-10-31T08:50:46;101973.0;;;13.2;88.79
67430;BME280;54298;52.076;5.264;2022-10-31T08:52:23;101974.0;;;13.36;88.5
67430;BME280;54298;52.076;5.264;2022-10-31T08:54:00;101970.0;;;13.35;88.32
67430;BME280;54298;52.076;5.264;2022-10-31T08:55:37;101964.0;;;13.32;88.31
67430;BME280;54298;52.076;5.264;2022-10-31T08:58:52;101960.0;;;13.29;88.8
67430;BME280;54298;52.076;5.264;2022-10-31T09:00:28;101959.0;;;13.33;88.63
67430;BME280;54298;52.076;5.264;2022-10-31T09:02:05;101956.0;;;13.39;88.62
67430;BME280;54298;52.076;5.264;2022-10-31T09:05:17;101952.0;;;13.38;89.0
67430;BME280;54298;52.076;5.264;2022-10-31T09:06:53;101956.0;;;13.45;89.06
67430;BME280;54298;52.076;5.264;2022-10-31T09:08:30;101951.0;;;13.54;88.95
67430;BME280;54298;52.076;5.264;2022-10-31T09:11:43;101948.0;;;13.61;88.91
67430;BME280;54298;52.076;5.264;2022-10-31T09:13:21;101945.0;;;13.68;88.93
67430;BME280;54298;52.076;5.264;2022-10-31T09:14:57;101941.0;;;13.62;89.42
67430;BME280;54298;52.076;5.264;2022-10-31T09:16:33;101941.0;;;13.83;89.11
67430;BME280;54298;52.076;5.264;2022-10-31T09:19:46;101936.0;;;13.85;89.2
67430;BME280;54298;52.076;5.264;2022-10-31T09:21:22;101928.0;;;14.03;88.99
67430;BME280;54298;52.076;5.264;2022-10-31T09:23:00;101924.0;;;14.08;88.95
67430;BME280;54298;52.076;5.264;2022-10-31T09:26:14;101918.0;;;14.14;88.67
67430;BME280;54298;52.076;5.264;2022-10-31T09:27:50;101922.0;;;14.2;89.0
67430;BME280;54298;52.076;5.264;2022-10-31T09:29:26;101917.0;;;14.28;88.8
67430;BME280;54298;52.076;5.264;2022-10-31T09:32:38;101908.0;;;14.38;88.67
67430;BME280;54298;52.076;5.264;2022-10-31T09:34:15;101907.0;;;14.47;88.6
67430;BME280;54298;52.076;5.264;2022-10-31T09:35:51;101912.0;;;14.49;88.66
67430;BME280;54298;52.076;5.264;2022-10-31T09:37:27;101915.0;;;14.57;88.71
67430;BME280;54298;52.076;5.264;2022-10-31T09:40:42;101915.0;;;14.55;88.85
67430;BME280;54298;52.076;5.264;2022-10-31T09:42:44;101917.0;;;14.68;88.37
67430;BME280;54298;52.076;5.264;2022-10-31T09:44:27;101913.0;;;14.76;88.03
67430;BME280;54298;52.076;5.264;2022-10-31T09:46:17;101910.0;;;14.77;87.61
67430;BME280;54298;52.076;5.264;2022-10-31T09:48:27;101909.0;;;14.84;87.24
67430;BME280;54298;52.076;5.264;2022-10-31T09:50:17;101914.0;;;14.95;86.98
67430;BME280;54298;52.076;5.264;2022-10-31T09:53:53;101905.0;;;15.02;86.62
67430;BME280;54298;52.076;5.264;2022-10-31T09:55:36;101900.0;;;15.17;85.85
67430;BME280;54298;52.076;5.264;2022-10-31T09:57:19;101901.0;;;15.17;85.44
67430;BME280;54298;52.076;5.264;2022-10-31T09:59:02;101898.0;;;15.16;85.5
67430;BME280;54298;52.076;5.264;2022-10-31T10:00:40;101894.0;;;15.28;85.04
67430;BME280;54298;52.076;5.264;2022-10-31T10:04:08;101896.0;;;15.33;84.87
67430;BME280;54298;52.076;5.264;2022-10-31T10:05:54;101891.0;;;15.37;84.43
67430;BME280;54298;52.076;5.264;2022-10-31T10:07:41;101893.0;;;15.44;84.03
67430;BME280;54298;52.076;5.264;2022-10-31T10:09:24;101891.0;;;15.53;83.64
67430;BME280;54298;52.076;5.264;2022-10-31T10:11:23;101890.0;;;15.62;83.04
67430;BME280;54298;52.076;5.264;2022-10-31T10:13:14;101880.0;;;15.62;82.6
67430;BME280;54298;52.076;5.264;2022-10-31T10:15:26;101885.0;;;15.66;82.54
67430;BME280;54298;52.076;5.264;2022-10-31T10:18:11;101876.0;;;15.69;82.41
67430;BME280;54298;52.076;5.264;2022-10-31T10:20:05;101876.0;;;15.73;82.27
67430;BME280;54298;52.076;5.264;2022-10-31T10:21:55;101872.0;;;15.85;81.92
67430;BME280;54298;52.076;5.264;2022-10-31T10:23:50;101876.0;;;15.87;81.8
67430;BME280;54298;52.076;5.264;2022-10-31T10:25:37;101874.0;;;15.9;82.04
67430;BME280;54298;52.076;5.264;2022-10-31T10:29:03;101874.0;;;15.96;81.61
67430;BME280;54298;52.076;5.264;2022-10-31T10:30:57;101868.0;;;16.05;81.33
67430;BME280;54298;52.076;5.264;2022-10-31T10:32:42;101861.0;;;16.11;81.11
67430;BME280;54298;52.076;5.264;2022-10-31T10:34:22;101859.0;;;16.09;81.14
67430;BME280;54298;52.076;5.264;2022-10-31T10:36:05;101864.0;;;16.07;81.28
67430;BME280;54298;52.076;5.264;2022-10-31T10:39:29;101856.0;;;16.16;80.86
67430;BME280;54298;52.076;5.264;2022-10-31T10:41:12;101852.0;;;16.11;81.52
67430;BME280;54298;52.076;5.264;2022-10-31T10:43:29;101857.0;;;16.16;81.2
67430;BME280;54298;52.076;5.264;2022-10-31T10:48:06;101834.0;;;16.23;81.33
67430;BME280;54298;52.076;5.264;2022-10-31T10:49:47;101827.0;;;16.32;80.99
67430;BME280;54298;52.076;5.264;2022-10-31T10:51:33;101821.0;;;16.32;81.19
67430;BME280;54298;52.076;5.264;2022-10-31T10:53:34;101815.0;;;16.41;80.86
67430;BME280;54298;52.076;5.264;2022-10-31T10:55:19;101816.0;;;16.48;80.66
67430;BME280;54298;52.076;5.264;2022-10-31T10:57:10;101810.0;;;16.55;80.19
67430;BME280;54298;52.076;5.264;2022-10-31T11:00:30;101807.0;;;16.53;79.94
67430;BME280;54298;52.076;5.264;2022-10-31T11:02:17;101798.0;;;16.59;80.41
67430;BME280;54298;52.076;5.264;2022-10-31T11:04:01;101799.0;;;16.61;79.83
67430;BME280;54298;52.076;5.264;2022-10-31T11:05:43;101790.0;;;16.61;79.92
67430;BME280;54298;52.076;5.264;2022-10-31T11:07:22;101780.0;;;16.66;79.87
67430;BME280;54298;52.076;5.264;2022-10-31T11:10:56;101771.0;;;16.75;79.72
67430;BME280;54298;52.076;5.264;2022-10-31T11:12:33;101769.0;;;16.8;79.89
67430;BME280;54298;52.076;5.264;2022-10-31T11:14:12;101771.0;;;16.9;79.7
67430;BME280;54298;52.076;5.264;2022-10-31T11:15:55;101777.0;;;16.95;78.88